ADDS METAR Data INFO
IDs: Format: Raw Decoded Include TAF

Data at: 0211 UTC 24 Nov 2017

EGBB 240150Z AUTO 25005KT 9999 NCD 06/02 Q1005

No METAR found for EGBJ

EGVN 240150Z 26002KT 9999 FEW040 BKN080 05/04 Q1005 NOSIG

EGTK 232220Z 24006KT CAVOK 06/04 Q1005

No METAR found for EGWC

No METAR found for EGTC

EGNX 240150Z 23004KT 190V260 CAVOK 04/02 Q1005